Oriibu — JD2579 — position and weather

sailwx.info

Track history (hours):
 
Tides and Currents Weather Stations Pressure Air Temp Water Temp Dewpoint Dewpoint Depression Visibility Wind Speed Wind Dir Waves Ship Positions

Oriibu

Last reported at 2017-Jan-20 09:33 UTC. Time now 2017-Jan-24 19:20 UTC.
Position N 34°36' E 134°54'.

Length 75 m; draft 4.5 m.

MMSI: 431000426.

Date/timePositionNaut miles runAvg speedWind from/ knotsBaromVisibWave heightAir tempDewpointWater temp
2017-Jan-20 09:33N 34°36' E 134°54'9 9.1
2017-Jan-20 08:33N 34°35' E 135°05'1111.2
2017-Jan-20 07:33N 34°34' E 135°19'3 0.3
2017-Jan-19 21:33N 34°32' E 135°23'1 0.7
2017-Jan-19 20:33N 34°32' E 135°22'0 0.0
2017-Jan-19 19:15N 34°32' E 135°22'0 0.0
2017-Jan-19 18:33N 34°32' E 135°22'0 0.0
2017-Jan-19 17:03N 34°32' E 135°22'0 0.0
2017-Jan-19 16:33N 34°32' E 135°22'0 0.0
2017-Jan-19 15:15N 34°32' E 135°22'0 0.0
2017-Jan-19 14:33N 34°32' E 135°22'0 0.0
2017-Jan-19 13:33N 34°32' E 135°22'0 0.0
2017-Jan-19 12:33N 34°32' E 135°22'0 0.0
2017-Jan-19 11:33N 34°32' E 135°22'0 0.0
2017-Jan-19 10:33N 34°32' E 135°22'0 0.0
2017-Jan-19 07:33N 34°32' E 135°22'0 0.0
2017-Jan-19 06:33N 34°32' E 135°22'0 0.0
2017-Jan-19 05:21N 34°32' E 135°22'2 2.5
2017-Jan-19 04:33N 34°32' E 135°19'1110.8
2017-Jan-19 03:33N 34°35' E 135°07'5 0.1
2017-Jan-17 09:25N 34°37' E 135°01'910.4
2017-Jan-17 08:33N 34°37' E 135°12'1211.8
2017-Jan-17 07:32N 34°40' E 135°26'1 0.1
2017-Jan-17 02:21N 34°40' E 135°27'5 6.2
2017-Jan-17 01:33N 34°35' E 135°26'1 0.3
2017-Jan-16 22:22N 34°35' E 135°27'0 0.0
2017-Jan-16 18:23N 34°35' E 135°27'6 7.3
2017-Jan-16 17:33N 34°33' E 135°19'1211.5
2017-Jan-16 16:32N 34°25' E 135°10'1211.1
2017-Jan-16 15:28N 34°15' E 135°03'239 8.2
2017-Jan-15 10:10N 35°12' E 139°46'711.0
2017-Jan-15 09:33N 35°18' E 139°44'5 4.9
2017-Jan-15 08:33N 35°22' E 139°40'0 0.1
2017-Jan-15 07:33N 35°22' E 139°40'0 0.0
2017-Jan-15 06:24N 35°22' E 139°40'0 0.0
2017-Jan-15 05:33N 35°22' E 139°40'0 0.1
2017-Jan-15 04:33N 35°22' E 139°40'0 0.0
2017-Jan-15 03:33N 35°22' E 139°40'0 0.0
2017-Jan-15 02:33N 35°22' E 139°40'0 0.0
2017-Jan-15 01:33N 35°22' E 139°40'0 0.0
2017-Jan-15 00:33N 35°22' E 139°40'0 0.0
2017-Jan-14 23:33N 35°22' E 139°40'0 0.0
2017-Jan-14 22:30N 35°22' E 139°40'0 0.0
2017-Jan-14 21:33N 35°22' E 139°40'0 0.0
2017-Jan-14 20:33N 35°22' E 139°40'0 0.0
2017-Jan-14 19:33N 35°22' E 139°40'0 0.0
2017-Jan-14 18:33N 35°22' E 139°40'0 0.1
2017-Jan-14 17:33N 35°22' E 139°40'3 2.8
2017-Jan-14 16:33N 35°24' E 139°43'7 7.4
2017-Jan-14 15:33N 35°21' E 139°51'0 0.0
2017-Jan-14 14:33N 35°21' E 139°51'0 0.0
2017-Jan-14 13:18N 35°21' E 139°51'0 0.0
2017-Jan-14 12:27N 35°21' E 139°51'0 0.0
2017-Jan-14 10:33N 35°21' E 139°51'0 0.0
2017-Jan-14 09:24N 35°21' E 139°51'0 0.0
2017-Jan-14 04:15N 35°21' E 139°51'0 0.0
2017-Jan-14 03:33N 35°21' E 139°51'0 0.0
2017-Jan-13 23:33N 35°21' E 139°51'0 0.0
2017-Jan-13 22:33N 35°21' E 139°51'0 0.0
2017-Jan-13 21:15N 35°21' E 139°51'0 0.0
2017-Jan-13 20:33N 35°21' E 139°51'0 0.0
2017-Jan-13 19:33N 35°21' E 139°51'0 0.0
2017-Jan-13 17:30N 35°21' E 139°51'0 0.0
2017-Jan-13 16:18N 35°21' E 139°51'0 0.0
2017-Jan-13 15:30N 35°21' E 139°51'0 0.0
2017-Jan-13 10:33N 35°21' E 139°51'0 0.0
2017-Jan-13 09:33N 35°21' E 139°51'0 0.0
2017-Jan-13 08:24N 35°21' E 139°51'0 0.0
2017-Jan-13 07:12N 35°21' E 139°51'0 0.0
2017-Jan-13 06:27N 35°21' E 139°51'0 0.0
2017-Jan-13 05:30N 35°21' E 139°51'0 0.0
2017-Jan-13 04:33N 35°21' E 139°51'0 0.0
2017-Jan-13 03:30N 35°21' E 139°51'0 0.0
2017-Jan-13 02:33N 35°21' E 139°51'0 0.0
2017-Jan-13 01:33N 35°21' E 139°51'0 0.0
2017-Jan-13 00:33N 35°21' E 139°51'0 0.0
2017-Jan-12 23:30N 35°21' E 139°51'0 0.0
2017-Jan-12 22:33N 35°21' E 139°51'0 0.0
2017-Jan-12 21:29N 35°21' E 139°51'0 0.0
2017-Jan-12 20:32N 35°21' E 139°51'0 0.0
2017-Jan-12 19:32N 35°21' E 139°51'0 0.0
2017-Jan-12 18:32N 35°21' E 139°51'0 0.0
2017-Jan-12 17:32N 35°21' E 139°51'0 0.0
2017-Jan-12 16:32N 35°21' E 139°51'0 0.0
2017-Jan-12 15:32N 35°21' E 139°51'0 0.0
2017-Jan-12 14:32N 35°21' E 139°51'0 0.0
2017-Jan-12 13:32N 35°21' E 139°51'0 0.0
2017-Jan-12 12:29N 35°21' E 139°51'0 0.0
2017-Jan-12 11:32N 35°21' E 139°51'0 0.0
2017-Jan-12 10:32N 35°21' E 139°51'0 0.0
2017-Jan-12 09:29N 35°21' E 139°51'0 0.0
2017-Jan-12 08:29N 35°21' E 139°51'1 0.6
2017-Jan-12 07:30N 35°22' E 139°51'0 0.0
2017-Jan-12 06:30N 35°22' E 139°51'0 0.0
2017-Jan-12 05:30N 35°22' E 139°51'0 0.0
2017-Jan-12 04:24N 35°22' E 139°51'0 0.0
2017-Jan-12 03:30N 35°22' E 139°51'0 0.0
2017-Jan-12 02:12N 35°22' E 139°51'0 0.0
2017-Jan-12 01:24N 35°22' E 139°51'0 0.0
2017-Jan-12 00:30N 35°22' E 139°51'1 1.3
2017-Jan-11 23:32N 35°22' E 139°49'0 0.0
2017-Jan-11 22:26N 35°22' E 139°49'0 0.0
2017-Jan-11 21:32N 35°22' E 139°49'0 0.1
2017-Jan-11 20:32N 35°22' E 139°49'3 2.9
2017-Jan-11 19:33N 35°22' E 139°53'1 0.1
2017-Jan-11 06:29N 35°22' E 139°54'3 3.4
2017-Jan-11 05:33N 35°24' E 139°51'0 0.0
2017-Jan-11 04:21N 35°24' E 139°51'0 0.1
2017-Jan-11 03:30N 35°24' E 139°51'0 0.0
2017-Jan-11 00:33N 35°24' E 139°51'0 0.0
2017-Jan-10 22:24N 35°24' E 139°51'0 0.0
2017-Jan-10 21:15N 35°24' E 139°51'0 0.0
2017-Jan-10 20:30N 35°24' E 139°51'0 0.0
2017-Jan-10 19:24N 35°24' E 139°51'0 0.0
2017-Jan-10 18:30N 35°24' E 139°51'0 0.0
2017-Jan-10 17:30N 35°24' E 139°51'0 0.0
2017-Jan-10 16:33N 35°24' E 139°51'0 0.0
2017-Jan-10 15:33N 35°24' E 139°51'0 0.0
2017-Jan-10 14:33N 35°24' E 139°51'0 0.0
2017-Jan-10 10:33N 35°24' E 139°51'1010.5
2017-Jan-10 09:33N 35°34' E 139°51'  
Track history (hours):
 
Tides and Currents Weather Stations Pressure Air Temp Water Temp Dewpoint Dewpoint Depression Visibility Wind Speed Wind Dir Waves Ship Positions

Oriibu

Last reported at 2017-Jan-20 09:33 UTC. Time now 2017-Jan-24 19:20 UTC.
Position N 34°36' E 134°54'.

Length 75 m; draft 4.5 m.

MMSI: 431000426.

Date/timePositionNaut miles runAvg speedWind from/ knotsBaromVisibWave heightAir tempDewpointWater temp
2017-Jan-20 09:33N 34°36' E 134°54'9 9.1
2017-Jan-20 08:33N 34°35' E 135°05'1111.2
2017-Jan-20 07:33N 34°34' E 135°19'3 0.3
2017-Jan-19 21:33N 34°32' E 135°23'1 0.7
2017-Jan-19 20:33N 34°32' E 135°22'0 0.0
2017-Jan-19 19:15N 34°32' E 135°22'0 0.0
2017-Jan-19 18:33N 34°32' E 135°22'0 0.0
2017-Jan-19 17:03N 34°32' E 135°22'0 0.0
2017-Jan-19 16:33N 34°32' E 135°22'0 0.0
2017-Jan-19 15:15N 34°32' E 135°22'0 0.0
2017-Jan-19 14:33N 34°32' E 135°22'0 0.0
2017-Jan-19 13:33N 34°32' E 135°22'0 0.0
2017-Jan-19 12:33N 34°32' E 135°22'0 0.0
2017-Jan-19 11:33N 34°32' E 135°22'0 0.0
2017-Jan-19 10:33N 34°32' E 135°22'0 0.0
2017-Jan-19 07:33N 34°32' E 135°22'0 0.0
2017-Jan-19 06:33N 34°32' E 135°22'0 0.0
2017-Jan-19 05:21N 34°32' E 135°22'2 2.5
2017-Jan-19 04:33N 34°32' E 135°19'1110.8
2017-Jan-19 03:33N 34°35' E 135°07'5 0.1
2017-Jan-17 09:25N 34°37' E 135°01'910.4
2017-Jan-17 08:33N 34°37' E 135°12'1211.8
2017-Jan-17 07:32N 34°40' E 135°26'1 0.1
2017-Jan-17 02:21N 34°40' E 135°27'5 6.2
2017-Jan-17 01:33N 34°35' E 135°26'1 0.3
2017-Jan-16 22:22N 34°35' E 135°27'0 0.0
2017-Jan-16 18:23N 34°35' E 135°27'6 7.3
2017-Jan-16 17:33N 34°33' E 135°19'1211.5
2017-Jan-16 16:32N 34°25' E 135°10'1211.1
2017-Jan-16 15:28N 34°15' E 135°03'239 8.2
2017-Jan-15 10:10N 35°12' E 139°46'711.0
2017-Jan-15 09:33N 35°18' E 139°44'5 4.9
2017-Jan-15 08:33N 35°22' E 139°40'0 0.1
2017-Jan-15 07:33N 35°22' E 139°40'0 0.0
2017-Jan-15 06:24N 35°22' E 139°40'0 0.0
2017-Jan-15 05:33N 35°22' E 139°40'0 0.1
2017-Jan-15 04:33N 35°22' E 139°40'0 0.0
2017-Jan-15 03:33N 35°22' E 139°40'0 0.0
2017-Jan-15 02:33N 35°22' E 139°40'0 0.0
2017-Jan-15 01:33N 35°22' E 139°40'0 0.0
2017-Jan-15 00:33N 35°22' E 139°40'0 0.0
2017-Jan-14 23:33N 35°22' E 139°40'0 0.0
2017-Jan-14 22:30N 35°22' E 139°40'0 0.0
2017-Jan-14 21:33N 35°22' E 139°40'0 0.0
2017-Jan-14 20:33N 35°22' E 139°40'0 0.0
2017-Jan-14 19:33N 35°22' E 139°40'0 0.0
2017-Jan-14 18:33N 35°22' E 139°40'0 0.1
2017-Jan-14 17:33N 35°22' E 139°40'3 2.8
2017-Jan-14 16:33N 35°24' E 139°43'7 7.4
2017-Jan-14 15:33N 35°21' E 139°51'0 0.0
2017-Jan-14 14:33N 35°21' E 139°51'0 0.0
2017-Jan-14 13:18N 35°21' E 139°51'0 0.0
2017-Jan-14 12:27N 35°21' E 139°51'0 0.0
2017-Jan-14 10:33N 35°21' E 139°51'0 0.0
2017-Jan-14 09:24N 35°21' E 139°51'0 0.0
2017-Jan-14 04:15N 35°21' E 139°51'0 0.0
2017-Jan-14 03:33N 35°21' E 139°51'0 0.0
2017-Jan-13 23:33N 35°21' E 139°51'0 0.0
2017-Jan-13 22:33N 35°21' E 139°51'0 0.0
2017-Jan-13 21:15N 35°21' E 139°51'0 0.0
2017-Jan-13 20:33N 35°21' E 139°51'0 0.0
2017-Jan-13 19:33N 35°21' E 139°51'0 0.0
2017-Jan-13 17:30N 35°21' E 139°51'0 0.0
2017-Jan-13 16:18N 35°21' E 139°51'0 0.0
2017-Jan-13 15:30N 35°21' E 139°51'0 0.0
2017-Jan-13 10:33N 35°21' E 139°51'0 0.0
2017-Jan-13 09:33N 35°21' E 139°51'0 0.0
2017-Jan-13 08:24N 35°21' E 139°51'0 0.0
2017-Jan-13 07:12N 35°21' E 139°51'0 0.0
2017-Jan-13 06:27N 35°21' E 139°51'0 0.0
2017-Jan-13 05:30N 35°21' E 139°51'0 0.0
2017-Jan-13 04:33N 35°21' E 139°51'0 0.0
2017-Jan-13 03:30N 35°21' E 139°51'0 0.0
2017-Jan-13 02:33N 35°21' E 139°51'0 0.0
2017-Jan-13 01:33N 35°21' E 139°51'0 0.0
2017-Jan-13 00:33N 35°21' E 139°51'0 0.0
2017-Jan-12 23:30N 35°21' E 139°51'0 0.0
2017-Jan-12 22:33N 35°21' E 139°51'0 0.0
2017-Jan-12 21:29N 35°21' E 139°51'0 0.0
2017-Jan-12 20:32N 35°21' E 139°51'0 0.0
2017-Jan-12 19:32N 35°21' E 139°51'0 0.0
2017-Jan-12 18:32N 35°21' E 139°51'0 0.0
2017-Jan-12 17:32N 35°21' E 139°51'0 0.0
2017-Jan-12 16:32N 35°21' E 139°51'0 0.0
2017-Jan-12 15:32N 35°21' E 139°51'0 0.0
2017-Jan-12 14:32N 35°21' E 139°51'0 0.0
2017-Jan-12 13:32N 35°21' E 139°51'0 0.0
2017-Jan-12 12:29N 35°21' E 139°51'0 0.0
2017-Jan-12 11:32N 35°21' E 139°51'0 0.0
2017-Jan-12 10:32N 35°21' E 139°51'0 0.0
2017-Jan-12 09:29N 35°21' E 139°51'0 0.0
2017-Jan-12 08:29N 35°21' E 139°51'1 0.6
2017-Jan-12 07:30N 35°22' E 139°51'0 0.0
2017-Jan-12 06:30N 35°22' E 139°51'0 0.0
2017-Jan-12 05:30N 35°22' E 139°51'0 0.0
2017-Jan-12 04:24N 35°22' E 139°51'0 0.0
2017-Jan-12 03:30N 35°22' E 139°51'0 0.0
2017-Jan-12 02:12N 35°22' E 139°51'0 0.0
2017-Jan-12 01:24N 35°22' E 139°51'0 0.0
2017-Jan-12 00:30N 35°22' E 139°51'1 1.3
2017-Jan-11 23:32N 35°22' E 139°49'0 0.0
2017-Jan-11 22:26N 35°22' E 139°49'0 0.0
2017-Jan-11 21:32N 35°22' E 139°49'0 0.1
2017-Jan-11 20:32N 35°22' E 139°49'3 2.9
2017-Jan-11 19:33N 35°22' E 139°53'1 0.1
2017-Jan-11 06:29N 35°22' E 139°54'3 3.4
2017-Jan-11 05:33N 35°24' E 139°51'0 0.0
2017-Jan-11 04:21N 35°24' E 139°51'0 0.1
2017-Jan-11 03:30N 35°24' E 139°51'0 0.0
2017-Jan-11 00:33N 35°24' E 139°51'0 0.0
2017-Jan-10 22:24N 35°24' E 139°51'0 0.0
2017-Jan-10 21:15N 35°24' E 139°51'0 0.0
2017-Jan-10 20:30N 35°24' E 139°51'0 0.0
2017-Jan-10 19:24N 35°24' E 139°51'0 0.0
2017-Jan-10 18:30N 35°24' E 139°51'0 0.0
2017-Jan-10 17:30N 35°24' E 139°51'0 0.0
2017-Jan-10 16:33N 35°24' E 139°51'0 0.0
2017-Jan-10 15:33N 35°24' E 139°51'0 0.0
2017-Jan-10 14:33N 35°24' E 139°51'0 0.0
2017-Jan-10 10:33N 35°24' E 139°51'1010.5
2017-Jan-10 09:33N 35°34' E 139°51'  

Dump ship's entire track history